Time;durP1;ratioP1;P1;durP2;ratioP2;P2;SDS_P1;SDS_P2;PMS_P1;PMS_P2;Temp;Humidity;BMP_temperature;BMP_pressure;BME280_temperature;BME280_humidity;BME280_pressure;Samples;Min_cycle;Max_cycle;Signal;HPM_P1;HPM_P2
2022/12/29 00:01:05;;;;;;;2.13;1.40;;;;;;;9.47;100.00;99931.88;5023913;28;20104;-66
2022/12/29 00:03:31;;;;;;;1.30;1.10;;;;;;;9.47;100.00;99942.22;5027308;28;20054;-67
2022/12/29 00:05:57;;;;;;;1.23;1.00;;;;;;;9.50;100.00;99937.09;5022725;28;20079;-66
2022/12/29 00:08:38;;;;;;;2.17;0.95;;;;;;;9.50;100.00;99939.69;5026002;28;20064;-66
2022/12/29 00:11:05;;;;;;;1.80;0.80;;;;;;;9.50;100.00;99944.88;5026061;28;20029;-65
2022/12/29 00:16:14;;;;;;;1.80;0.70;;;;;;;9.44;100.00;99940.47;5024207;28;20091;-64
2022/12/29 00:18:39;;;;;;;0.90;0.40;;;;;;;9.37;100.00;99920.47;5024825;28;20025;-64
2022/12/29 00:35:38;;;;;;;1.48;0.57;;;;;;;9.01;100.00;99904.16;5010207;28;20163;-65
2022/12/29 00:46:18;;;;;;;1.40;0.70;;;;;;;8.85;100.00;99882.25;5030050;28;20106;-65
2022/12/29 00:51:27;;;;;;;2.15;1.13;;;;;;;8.80;100.00;99882.13;5029004;28;20588;-64
2022/12/29 00:53:52;;;;;;;1.98;1.00;;;;;;;8.79;100.00;99872.63;5029981;28;20068;-64
2022/12/29 00:56:18;;;;;;;1.45;1.35;;;;;;;8.77;100.00;99869.13;5015624;28;20083;-65
2022/12/29 00:58:43;;;;;;;1.48;1.30;;;;;;;8.77;100.00;99869.13;5008639;28;20021;-65
2022/12/29 01:01:09;;;;;;;2.15;2.05;;;;;;;8.84;100.00;99873.63;5010527;28;20109;-65
2022/12/29 01:03:37;;;;;;;2.42;1.92;;;;;;;8.85;100.00;99862.44;5010103;28;20025;-65
2022/12/29 01:06:05;;;;;;;2.67;2.03;;;;;;;8.92;100.00;99867.75;5023114;28;20025;-65
2022/12/29 01:08:31;;;;;;;2.33;2.13;;;;;;;8.95;100.00;99857.47;5018551;28;20608;-64
2022/12/29 01:10:59;;;;;;;3.15;2.00;;;;;;;8.99;100.00;99851.56;5029824;28;20168;-65
2022/12/29 01:13:24;;;;;;;3.28;2.30;;;;;;;9.01;100.00;99847.31;5029914;28;20056;-65
2022/12/29 01:15:53;;;;;;;2.20;1.88;;;;;;;9.05;100.00;99841.34;5014280;28;20470;-64
2022/12/29 01:18:19;;;;;;;1.98;1.40;;;;;;;9.07;100.00;99847.41;5009596;28;20022;-65
2022/12/29 01:20:44;;;;;;;1.45;1.35;;;;;;;9.10;100.00;99842.31;5009580;28;20457;-65
2022/12/29 01:23:09;;;;;;;1.27;1.17;;;;;;;9.19;100.00;99851.13;5009909;28;20021;-65
2022/12/29 01:25:35;;;;;;;1.90;0.95;;;;;;;9.27;100.00;99849.56;5010131;28;20044;-65
2022/12/29 01:28:00;;;;;;;2.67;1.02;;;;;;;9.28;100.00;99841.00;5015412;28;20147;-65
2022/12/29 01:30:25;;;;;;;1.55;1.08;;;;;;;9.26;100.00;99842.66;5019628;28;20532;-64
2022/12/29 01:32:50;;;;;;;2.85;0.90;;;;;;;9.27;100.00;99836.66;5014298;28;20021;-64
2022/12/29 01:35:16;;;;;;;2.17;0.93;;;;;;;9.25;100.00;99830.56;5015702;28;20435;-65
2022/12/29 01:37:41;;;;;;;1.05;0.93;;;;;;;9.25;100.00;99835.72;5014474;28;20101;-65
2022/12/29 01:40:07;;;;;;;1.30;0.77;;;;;;;9.27;100.00;99836.66;5024676;28;20029;-65
2022/12/29 01:42:32;;;;;;;1.48;0.63;;;;;;;9.32;100.00;99839.31;5012266;28;20014;-65
2022/12/29 01:45:02;;;;;;;1.30;0.70;;;;;;;9.39;100.00;99832.59;5009521;28;20036;-65
2022/12/29 01:47:59;;;;;;;0.85;0.55;;;;;;;9.46;100.00;99842.22;5023937;28;20150;-65
2022/12/29 01:50:38;;;;;;;0.60;0.40;;;;;;;9.59;100.00;99839.03;5027950;28;20478;-65
2022/12/29 01:53:09;;;;;;;1.50;0.77;;;;;;;9.63;100.00;99841.66;5028982;28;20033;-65
2022/12/29 01:55:41;;;;;;;1.42;0.73;;;;;;;9.67;100.00;99833.13;5019934;28;20029;-65
2022/12/29 01:58:06;;;;;;;1.58;0.50;;;;;;;9.68;100.00;99845.22;5028086;28;20029;-65
2022/12/29 02:00:32;;;;;;;1.38;0.63;;;;;;;9.71;100.00;99840.13;5021116;28;20025;-65
2022/12/29 02:02:57;;;;;;;1.52;0.85;;;;;;;9.75;100.00;99841.91;5009754;28;20025;-65
2022/12/29 02:05:50;;;;;;;1.38;0.50;;;;;;;9.77;100.00;99845.41;5025933;28;20037;-66
2022/12/29 02:08:16;;;;;;;1.35;0.57;;;;;;;9.78;100.00;99842.00;5015411;28;20121;-66
2022/12/29 02:10:43;;;;;;;3.33;0.75;;;;;;;9.83;100.00;99832.59;5028379;28;20075;-66
2022/12/29 02:13:08;;;;;;;1.55;0.55;;;;;;;9.86;100.00;99839.53;5028348;28;20030;-66
2022/12/29 02:16:05;;;;;;;0.98;0.55;;;;;;;9.85;100.00;99845.56;5026903;28;20138;-65
2022/12/29 02:18:55;;;;;;;1.52;0.52;;;;;;;9.90;100.00;99830.09;5014820;28;20028;-66
2022/12/29 02:21:48;;;;;;;1.08;0.52;;;;;;;9.99;100.00;99832.00;5022761;28;20069;-66
2022/12/29 02:25:04;;;;;;;1.15;0.50;;;;;;;10.01;100.00;99838.94;5027067;28;20072;-66
2022/12/29 02:28:00;;;;;;;1.00;0.50;;;;;;;10.00;100.00;99842.38;4993320;28;20042;-65
2022/12/29 02:30:53;;;;;;;0.77;0.40;;;;;;;9.97;100.00;99827.66;5015541;28;20374;-65
2022/12/29 02:34:02;;;;;;;1.85;0.68;;;;;;;9.93;100.00;99815.50;5017401;28;20029;-65
2022/12/29 02:36:44;;;;;;;1.30;0.57;;;;;;;9.97;100.00;99819.03;4920462;29;20036;-65
2022/12/29 02:39:27;;;;;;;1.58;0.60;;;;;;;9.96;100.00;99812.13;4911527;29;20039;-65
2022/12/29 02:42:05;;;;;;;2.72;0.50;;;;;;;9.97;100.00;99816.44;4983064;28;20037;-65
2022/12/29 02:45:03;;;;;;;1.92;0.60;;;;;;;9.92;100.00;99818.06;5008854;28;20029;-65
2022/12/29 02:47:31;;;;;;;1.15;0.60;;;;;;;9.92;100.00;99818.94;5008660;28;21275;-66
2022/12/29 02:49:59;;;;;;;1.63;0.60;;;;;;;9.91;100.00;99813.75;5008540;28;20120;-65
2022/12/29 02:52:38;;;;;;;1.58;0.60;;;;;;;9.87;100.00;99811.94;5008582;28;20141;-65
2022/12/29 02:55:04;;;;;;;0.52;0.38;;;;;;;9.80;100.00;99811.84;5014258;28;20377;-65
2022/12/29 02:57:34;;;;;;;1.13;0.70;;;;;;;9.83;100.00;99811.91;5027450;28;20144;-65
2022/12/29 03:00:08;;;;;;;3.40;0.70;;;;;;;9.81;100.00;99803.22;5027313;28;20432;-65
2022/12/29 03:03:00;;;;;;;1.23;0.40;;;;;;;9.79;100.00;99802.31;5026165;28;20032;-65
2022/12/29 03:05:56;;;;;;;1.33;0.30;;;;;;;9.80;100.00;99801.50;5027115;28;20134;-65
2022/12/29 03:08:43;;;;;;;1.92;0.50;;;;;;;9.79;100.00;99786.78;5027081;28;20082;-65
2022/12/29 03:17:09;;;;;;;2.60;0.70;;;;;;;9.73;100.00;99797.03;5027717;28;20056;-65
2022/12/29 03:19:45;;;;;;;1.13;0.60;;;;;;;9.75;100.00;99808.28;5027660;28;20032;-66
2022/12/29 03:22:32;;;;;;;2.33;0.40;;;;;;;9.74;100.00;99793.59;5024839;28;20071;-65
2022/12/29 03:25:14;;;;;;;0.98;0.50;;;;;;;9.74;100.00;99791.00;5007134;28;20124;-65
2022/12/29 03:27:46;;;;;;;0.70;0.40;;;;;;;9.73;100.00;99802.22;5010982;28;20021;-65
2022/12/29 03:30:13;;;;;;;3.55;0.80;;;;;;;9.71;100.00;99790.97;5016687;28;20033;-65
2022/12/29 03:32:44;;;;;;;2.00;0.90;;;;;;;9.69;100.00;99774.53;5007668;28;20038;-65
2022/12/29 03:35:12;;;;;;;;;;;;;;;9.69;100.00;99778.00;5008079;28;20022;-65
2022/12/29 03:37:41;;;;;;;1.42;0.50;;;;;;;9.66;100.00;99790.88;5007308;28;19917;-65
2022/12/29 03:40:07;;;;;;;2.17;0.55;;;;;;;9.60;100.00;99776.13;5007577;28;20394;-65
2022/12/29 03:42:35;;;;;;;1.95;0.80;;;;;;;9.56;100.00;99781.19;5008160;28;20048;-65
2022/12/29 03:45:01;;;;;;;1.10;0.45;;;;;;;9.49;100.00;99785.38;5007561;28;20022;-66
2022/12/29 03:47:26;;;;;;;2.92;0.73;;;;;;;9.50;100.00;99776.75;5007089;28;20030;-66
2022/12/29 03:49:53;;;;;;;2.00;0.60;;;;;;;9.45;100.00;99788.72;5007970;28;20037;-65
2022/12/29 03:52:18;;;;;;;2.55;0.70;;;;;;;9.43;100.00;99780.06;5007590;28;20046;-65
2022/12/29 03:54:44;;;;;;;0.88;0.50;;;;;;;9.41;100.00;99789.53;5010324;28;20445;-65
2022/12/29 03:57:11;;;;;;;2.97;0.50;;;;;;;9.36;100.00;99792.88;5026334;28;20014;-65
2022/12/29 03:59:36;;;;;;;1.75;0.50;;;;;;;9.35;100.00;99790.28;5026466;28;20017;-66
2022/12/29 04:02:02;;;;;;;2.30;0.60;;;;;;;9.31;100.00;99798.81;5026858;28;20041;-65
2022/12/29 04:04:27;;;;;;;2.20;0.85;;;;;;;9.28;100.00;99820.31;5026603;28;20049;-65
2022/12/29 04:06:53;;;;;;;3.50;0.82;;;;;;;9.26;100.00;99814.22;5026575;28;20548;-65
2022/12/29 04:09:18;;;;;;;3.17;0.90;;;;;;;9.22;100.00;99820.16;5027952;28;20087;-65
2022/12/29 04:11:43;;;;;;;2.00;0.52;;;;;;;9.18;100.00;99808.00;5030133;28;20029;-65
2022/12/29 04:14:08;;;;;;;3.50;0.47;;;;;;;9.10;100.00;99785.44;5029895;28;20028;-65
2022/12/29 04:16:35;;;;;;;3.45;0.70;;;;;;;9.05;100.00;99792.25;5029923;28;20023;-65
2022/12/29 04:19:01;;;;;;;4.13;0.80;;;;;;;9.00;100.00;99814.53;5029021;28;20113;-65
2022/12/29 04:21:26;;;;;;;4.50;0.60;;;;;;;8.93;100.00;99822.97;5030236;28;20028;-66
2022/12/29 04:23:52;;;;;;;4.78;0.75;;;;;;;8.87;100.00;99829.75;5028346;28;20380;-66
2022/12/29 04:26:17;;;;;;;5.72;0.70;;;;;;;8.79;100.00;99836.47;5030331;28;20018;-65
2022/12/29 04:28:42;;;;;;;2.08;0.98;;;;;;;8.73;100.00;99836.31;5028697;28;20032;-65
2022/12/29 04:31:07;;;;;;;4.05;0.70;;;;;;;8.72;100.00;99835.47;5029921;28;20028;-65
2022/12/29 04:33:33;;;;;;;3.50;0.80;;;;;;;8.65;100.00;99824.09;5029415;28;20064;-66
2022/12/29 04:35:58;;;;;;;3.95;0.70;;;;;;;8.65;100.00;99828.41;5028905;28;20523;-65
2022/12/29 04:38:24;;;;;;;2.92;0.52;;;;;;;8.65;100.00;99826.66;5029494;28;20025;-65
2022/12/29 04:40:50;;;;;;;2.83;0.80;;;;;;;8.64;100.00;99830.09;5028955;28;20022;-66
2022/12/29 04:43:18;;;;;;;3.35;0.65;;;;;;;8.62;100.00;99834.34;5030098;28;20025;-65
2022/12/29 04:45:44;;;;;;;3.55;0.70;;;;;;;8.60;100.00;99841.19;5029084;28;20028;-65
2022/12/29 04:48:10;;;;;;;2.80;0.90;;;;;;;8.60;100.00;99846.34;5029257;28;20440;-66
2022/12/29 04:50:35;;;;;;;2.78;0.70;;;;;;;8.61;100.00;99840.38;5029421;28;20187;-65
2022/12/29 04:53:00;;;;;;;3.15;0.60;;;;;;;8.61;100.00;99850.69;5029363;28;20025;-65
2022/12/29 04:55:26;;;;;;;4.00;1.08;;;;;;;8.58;100.00;99868.69;5028941;28;20075;-65
2022/12/29 04:57:51;;;;;;;3.83;0.95;;;;;;;8.53;100.00;99855.63;5014885;28;20037;-65
2022/12/29 05:00:17;;;;;;;4.72;1.35;;;;;;;8.52;100.00;99863.34;5010247;28;20018;-65
2022/12/29 05:02:42;;;;;;;3.78;0.90;;;;;;;8.48;100.00;99852.06;5010373;28;20022;-66
2022/12/29 05:05:08;;;;;;;4.82;1.00;;;;;;;8.49;100.00;99864.13;5010282;28;20036;-65
2022/12/29 05:07:33;;;;;;;4.47;0.90;;;;;;;8.52;100.00;99864.22;5011115;28;20022;-65
2022/12/29 05:09:59;;;;;;;7.63;0.95;;;;;;;8.51;100.00;99869.31;5010924;28;20026;-65
2022/12/29 05:12:25;;;;;;;5.43;1.33;;;;;;;8.51;100.00;99872.78;5010447;28;20534;-65
2022/12/29 05:14:50;;;;;;;4.72;0.85;;;;;;;8.51;100.00;99877.06;5010867;28;20127;-65
2022/12/29 05:17:15;;;;;;;3.65;0.90;;;;;;;8.50;100.00;99872.75;5023754;28;20017;-65
2022/12/29 05:19:40;;;;;;;3.72;1.00;;;;;;;8.49;100.00;99879.63;5010271;28;20371;-65
2022/12/29 05:22:06;;;;;;;4.72;0.80;;;;;;;8.47;100.00;99890.75;5010916;28;20245;-65
2022/12/29 05:24:31;;;;;;;4.75;1.00;;;;;;;8.47;100.00;99896.78;5009699;28;20386;-65
2022/12/29 05:26:56;;;;;;;3.45;1.35;;;;;;;8.48;100.00;99895.06;5024950;28;20048;-65
2022/12/29 05:29:21;;;;;;;4.65;1.10;;;;;;;8.48;100.00;99893.38;5025782;28;20064;-64
2022/12/29 05:31:47;;;;;;;5.93;1.52;;;;;;;8.51;100.00;99897.72;5020069;28;20071;-65
2022/12/29 05:34:12;;;;;;;6.75;0.93;;;;;;;8.52;100.00;99910.72;5014850;28;20018;-65
2022/12/29 05:36:38;;;;;;;3.25;0.60;;;;;;;8.54;100.00;99910.75;5028662;28;20039;-65
2022/12/29 05:39:04;;;;;;;3.90;0.93;;;;;;;8.54;100.00;99900.41;5028510;28;20029;-65
2022/12/29 05:41:29;;;;;;;5.00;0.70;;;;;;;8.51;100.00;99903.78;5028666;28;20028;-65
2022/12/29 05:43:54;;;;;;;3.05;0.80;;;;;;;8.54;100.00;99918.50;5028331;28;20115;-65
2022/12/29 05:46:19;;;;;;;3.88;0.65;;;;;;;8.53;100.00;99917.59;5028527;28;20018;-65
2022/12/29 05:48:45;;;;;;;5.45;0.85;;;;;;;8.55;100.00;99924.50;5028243;28;20029;-65
2022/12/29 05:51:10;;;;;;;2.15;0.82;;;;;;;8.58;100.00;99919.47;5017701;28;20049;-65
2022/12/29 05:53:35;;;;;;;2.13;0.80;;;;;;;8.58;100.00;99917.75;5009753;28;20149;-65
2022/12/29 05:56:01;;;;;;;1.13;0.55;;;;;;;8.67;100.00;99926.59;5022499;28;20379;-65
2022/12/29 05:58:26;;;;;;;5.30;0.80;;;;;;;8.73;100.00;99924.13;5009324;28;20501;-65
2022/12/29 06:00:51;;;;;;;3.90;0.70;;;;;;;8.85;100.00;99939.94;5009005;28;20029;-65
2022/12/29 06:03:17;;;;;;;2.65;0.68;;;;;;;8.83;100.00;99928.69;5009493;28;20026;-65
2022/12/29 06:05:45;;;;;;;5.78;1.00;;;;;;;8.88;100.00;99934.00;5009872;28;20532;-65
2022/12/29 06:08:10;;;;;;;3.88;0.80;;;;;;;8.89;100.00;99931.44;5009211;28;20014;-65
2022/12/29 06:10:35;;;;;;;6.72;1.08;;;;;;;8.88;100.00;99928.81;5009343;28;20040;-65
2022/12/29 06:13:00;;;;;;;2.80;1.23;;;;;;;8.88;100.00;99931.41;5009141;28;20466;-65
2022/12/29 06:15:26;;;;;;;3.15;0.80;;;;;;;8.88;100.00;99934.00;5009092;28;20044;-65
2022/12/29 06:17:51;;;;;;;4.57;0.95;;;;;;;8.87;100.00;99948.59;5021317;28;20024;-65
2022/12/29 06:20:16;;;;;;;2.30;0.60;;;;;;;8.93;100.00;99929.81;5019245;28;20393;-65
2022/12/29 06:22:41;;;;;;;4.50;0.90;;;;;;;8.96;100.00;99926.44;5011923;28;20025;-65
2022/12/29 06:25:07;;;;;;;3.45;0.65;;;;;;;8.98;100.00;99925.63;5023787;28;20033;-65
2022/12/29 06:27:33;;;;;;;3.33;0.70;;;;;;;8.99;100.00;99931.66;5026627;28;20140;-65
2022/12/29 06:29:58;;;;;;;5.97;0.90;;;;;;;8.97;100.00;99935.91;5027350;28;20692;-65
2022/12/29 06:32:23;;;;;;;3.42;0.77;;;;;;;9.01;100.00;99919.66;5021788;28;20034;-65
2022/12/29 06:34:49;;;;;;;4.70;0.90;;;;;;;8.99;100.00;99918.75;5016298;28;20029;-66
2022/12/29 06:37:14;;;;;;;2.67;0.88;;;;;;;8.98;100.00;99922.16;5020040;28;20106;-63
2022/12/29 06:39:40;;;;;;;3.70;0.90;;;;;;;8.95;100.00;99916.91;5008206;28;20042;-64
2022/12/29 06:42:05;;;;;;;3.60;0.70;;;;;;;8.96;100.00;99914.38;5012596;28;20037;-64
2022/12/29 06:44:30;;;;;;;4.03;1.05;;;;;;;8.93;100.00;99908.25;5008557;28;20046;-65
2022/12/29 06:46:57;;;;;;;4.13;0.85;;;;;;;8.93;100.00;99916.00;5017722;28;20434;-65
2022/12/29 06:49:22;;;;;;;5.75;1.33;;;;;;;8.98;100.00;99911.81;5019173;28;20045;-65
2022/12/29 06:51:47;;;;;;;4.32;0.95;;;;;;;8.98;100.00;99915.28;5014664;28;20581;-65
2022/12/29 06:54:13;;;;;;;5.93;1.00;;;;;;;9.01;100.00;99914.50;5009628;28;20022;-65
2022/12/29 06:56:38;;;;;;;6.07;1.88;;;;;;;9.03;100.00;99906.78;5019443;28;20485;-65
2022/12/29 06:59:04;;;;;;;5.25;0.88;;;;;;;8.98;100.00;99919.56;5008555;28;20029;-65
2022/12/29 07:01:29;;;;;;;6.05;1.25;;;;;;;8.97;100.00;99923.00;5014389;28;20048;-65
2022/12/29 07:03:55;;;;;;;7.38;1.13;;;;;;;9.01;100.00;99919.66;5033532;28;20080;-65
2022/12/29 07:06:20;;;;;;;3.85;1.25;;;;;;;8.99;100.00;99921.34;5015240;28;20068;-64
2022/12/29 07:08:46;;;;;;;4.10;0.80;;;;;;;9.00;100.00;99918.78;5009418;28;20085;-65
2022/12/29 07:11:11;;;;;;;5.75;1.20;;;;;;;8.98;100.00;99924.72;5010002;28;20028;-65
2022/12/29 07:13:36;;;;;;;3.83;1.00;;;;;;;9.04;100.00;99929.19;5010311;28;20468;-65
2022/12/29 07:16:09;;;;;;;5.03;0.88;;;;;;;9.04;100.00;99937.81;5008826;28;20108;-65
2022/12/29 07:18:35;;;;;;;4.80;1.58;;;;;;;9.02;100.00;99942.06;5010739;28;20037;-65
2022/12/29 07:21:00;;;;;;;9.40;1.17;;;;;;;9.04;100.00;99945.56;5012079;28;20056;-65
2022/12/29 07:23:26;;;;;;;4.53;0.95;;;;;;;9.05;100.00;99957.63;5011940;28;20045;-65
2022/12/29 07:26:03;;;;;;;5.90;1.08;;;;;;;9.07;100.00;99960.25;5019057;28;20033;-65
2022/12/29 07:28:29;;;;;;;8.43;1.75;;;;;;;9.05;100.00;99965.41;5013137;28;20117;-65
2022/12/29 07:30:54;;;;;;;4.97;1.08;;;;;;;9.06;100.00;99968.88;5011212;28;20484;-65
2022/12/29 07:33:20;;;;;;;6.32;1.02;;;;;;;9.10;100.00;99965.53;5013459;28;20025;-65
2022/12/29 07:35:45;;;;;;;6.55;1.33;;;;;;;9.08;100.00;99977.53;5010653;28;20029;-64
2022/12/29 07:38:10;;;;;;;7.55;1.30;;;;;;;9.05;100.00;99980.91;5006350;28;20025;-65
2022/12/29 07:40:36;;;;;;;4.80;1.23;;;;;;;9.08;100.00;99975.84;5007397;28;20120;-65
2022/12/29 07:43:01;;;;;;;3.72;1.35;;;;;;;9.06;100.00;99974.91;5005433;28;20475;-65
2022/12/29 07:45:26;;;;;;;6.45;1.33;;;;;;;9.03;100.00;99968.78;5006319;28;20034;-65
2022/12/29 07:47:52;;;;;;;8.95;1.17;;;;;;;9.01;100.00;99982.53;5011572;28;20029;-65
2022/12/29 07:50:17;;;;;;;5.40;2.45;;;;;;;9.01;100.00;99986.84;5012029;28;20043;-65
2022/12/29 07:52:42;;;;;;;4.35;1.13;;;;;;;9.00;100.00;99974.75;5010735;28;20042;-65
2022/12/29 07:55:08;;;;;;;3.58;1.33;;;;;;;9.03;100.00;99969.66;5010765;28;20029;-64
2022/12/29 07:57:34;;;;;;;7.55;1.83;;;;;;;9.02;100.00;99973.09;5011371;28;20062;-65
2022/12/29 07:59:59;;;;;;;7.53;1.65;;;;;;;9.06;100.00;99982.66;5021098;28;20029;-64
2022/12/29 08:02:26;;;;;;;6.07;1.52;;;;;;;9.04;100.00;99974.00;5008403;28;20052;-64
2022/12/29 08:04:51;;;;;;;6.60;1.33;;;;;;;9.05;100.00;99973.16;5031881;28;20032;-65
2022/12/29 08:07:16;;;;;;;8.80;1.85;;;;;;;9.03;100.00;99982.56;5016914;28;20025;-64
2022/12/29 08:09:41;;;;;;;4.90;1.10;;;;;;;9.04;100.00;99988.63;5023834;28;20055;-65
2022/12/29 08:12:09;;;;;;;5.95;1.30;;;;;;;9.05;100.00;99988.66;5015307;28;20125;-65
2022/12/29 08:14:34;;;;;;;5.90;1.40;;;;;;;9.05;100.00;99983.47;5022373;28;20043;-65
2022/12/29 08:17:00;;;;;;;8.60;2.63;;;;;;;9.05;100.00;99978.31;5022286;28;20037;-64
2022/12/29 08:19:25;;;;;;;6.70;1.20;;;;;;;9.03;100.00;99995.50;5022881;28;20025;-64
2022/12/29 08:21:52;;;;;;;7.32;1.83;;;;;;;9.05;100.00;100004.16;5008448;28;20032;-65
2022/12/29 08:24:17;;;;;;;8.43;1.90;;;;;;;9.04;100.00;99998.97;5007610;28;20036;-64
2022/12/29 08:26:43;;;;;;;3.78;1.25;;;;;;;9.04;100.00;99992.09;5013089;28;20459;-64
2022/12/29 08:29:08;;;;;;;6.30;1.10;;;;;;;9.04;100.00;99984.34;5014295;28;20109;-65
2022/12/29 08:31:34;;;;;;;5.43;1.27;;;;;;;9.05;100.00;100013.66;5015469;28;20509;-64
2022/12/29 08:34:00;;;;;;;5.82;1.30;;;;;;;9.10;100.00;99999.97;5019803;28;20041;-65
2022/12/29 08:36:25;;;;;;;8.10;1.30;;;;;;;9.07;100.00;100012.84;5021227;28;20030;-65
2022/12/29 08:38:50;;;;;;;7.28;1.23;;;;;;;9.09;100.00;100008.59;5016856;28;20104;-64
2022/12/29 08:41:15;;;;;;;7.00;1.85;;;;;;;9.08;100.00;99993.03;5019513;28;20025;-65
2022/12/29 08:43:41;;;;;;;7.13;1.52;;;;;;;9.11;100.00;100004.31;5016301;28;20375;-65
2022/12/29 08:46:06;;;;;;;7.18;2.10;;;;;;;9.16;100.00;100001.84;5009281;28;20037;-65
2022/12/29 08:48:31;;;;;;;6.40;2.33;;;;;;;9.17;100.00;100007.91;5013742;28;20064;-64
2022/12/29 08:50:57;;;;;;;7.32;2.00;;;;;;;9.18;100.00;99999.28;5006522;28;20478;-65
2022/12/29 08:53:22;;;;;;;8.18;1.88;;;;;;;9.21;100.00;99999.38;5011691;28;20029;-65
2022/12/29 08:55:55;;;;;;;5.22;1.58;;;;;;;9.24;100.00;100002.03;5019264;28;20539;-64
2022/12/29 08:58:20;;;;;;;8.10;1.30;;;;;;;9.28;100.00;100005.56;5017058;28;20049;-65
2022/12/29 09:00:46;;;;;;;7.00;1.70;;;;;;;9.30;100.00;100006.50;5021123;28;20029;-65
2022/12/29 09:03:11;;;;;;;7.40;1.30;;;;;;;9.31;100.00;100003.94;5013931;28;20021;-64
2022/12/29 09:05:37;;;;;;;7.03;1.27;;;;;;;9.34;100.00;100005.69;5020348;28;20034;-65
2022/12/29 09:08:02;;;;;;;7.72;1.77;;;;;;;9.32;100.00;100013.44;5010844;28;20488;-64
2022/12/29 09:10:28;;;;;;;6.43;1.60;;;;;;;9.34;100.00;100006.59;5013524;28;20550;-65
2022/12/29 09:12:53;;;;;;;7.43;1.52;;;;;;;9.32;100.00;100017.72;5011333;28;20351;-65
2022/12/29 09:15:18;;;;;;;9.75;2.17;;;;;;;9.33;100.00;100015.19;5012193;28;20429;-65
2022/12/29 09:17:45;;;;;;;10.18;1.98;;;;;;;9.32;100.00;100023.78;5013194;28;20026;-65
2022/12/29 09:20:15;;;;;;;6.30;1.50;;;;;;;9.31;100.00;100018.56;5010617;28;20115;-65
2022/12/29 09:22:41;;;;;;;5.55;1.33;;;;;;;9.30;100.00;100030.59;5022677;28;20026;-65
2022/12/29 09:25:08;;;;;;;7.38;1.90;;;;;;;9.29;100.00;100039.22;5017042;28;20022;-65
2022/12/29 09:27:33;;;;;;;7.68;1.45;;;;;;;9.28;100.00;100021.09;5023574;28;20132;-65
2022/12/29 09:29:58;;;;;;;5.88;1.45;;;;;;;9.24;100.00;100035.66;5020795;28;20432;-64
2022/12/29 09:32:24;;;;;;;4.22;1.55;;;;;;;9.20;100.00;100026.06;5015983;28;20032;-65
2022/12/29 09:34:49;;;;;;;6.32;1.60;;;;;;;9.16;100.00;100043.19;5018733;28;20532;-65
2022/12/29 09:37:14;;;;;;;6.03;1.05;;;;;;;9.12;100.00;100047.41;5024074;28;20021;-65
2022/12/29 09:39:40;;;;;;;5.60;1.15;;;;;;;9.06;100.00;100052.44;5019888;28;20034;-65
2022/12/29 09:42:17;;;;;;;5.43;1.38;;;;;;;9.05;100.00;100055.84;5013046;28;20045;-64
2022/12/29 09:45:06;;;;;;;7.10;2.15;;;;;;;9.01;100.00;100056.63;5015132;28;20053;-65
2022/12/29 09:47:32;;;;;;;5.95;1.42;;;;;;;9.01;100.00;100061.81;5014108;28;20481;-65
2022/12/29 09:50:06;;;;;;;8.13;2.20;;;;;;;8.98;100.00;100061.69;5022126;28;20029;-65
2022/12/29 09:52:39;;;;;;;9.05;1.48;;;;;;;8.99;100.00;100058.28;5019826;28;20042;-65
2022/12/29 09:55:12;;;;;;;4.70;1.20;;;;;;;8.98;100.00;100074.63;5021154;28;20033;-65
2022/12/29 09:57:52;;;;;;;5.95;1.80;;;;;;;8.97;100.00;100073.75;5015479;28;20022;-65
2022/12/29 10:00:20;;;;;;;7.10;1.27;;;;;;;8.91;100.00;100090.78;5008619;28;20056;-66
2022/12/29 10:02:54;;;;;;;6.78;1.52;;;;;;;8.85;100.00;100094.09;5009557;28;20034;-65
2022/12/29 10:05:35;;;;;;;5.90;1.00;;;;;;;8.83;100.00;100099.22;5013617;28;20501;-65
2022/12/29 10:08:18;;;;;;;6.38;1.40;;;;;;;8.72;100.00;100103.22;5039229;28;20448;-66
2022/12/29 10:10:56;;;;;;;10.43;2.13;;;;;;;8.69;100.00;100105.72;5017977;28;20040;-65
2022/12/29 10:13:40;;;;;;;6.93;1.33;;;;;;;8.68;100.00;100116.88;5020547;28;20346;-66
2022/12/29 10:16:20;;;;;;;9.02;1.40;;;;;;;8.57;100.00;100125.19;5021428;28;20021;-66
2022/12/29 10:18:56;;;;;;;6.35;1.20;;;;;;;8.56;100.00;100127.75;5018811;28;20044;-65
2022/12/29 10:21:34;;;;;;;8.35;1.52;;;;;;;8.52;100.00;100144.81;5023252;28;20029;-65
2022/12/29 10:24:03;;;;;;;9.70;1.60;;;;;;;8.46;100.00;100153.25;5020912;28;20394;-65
2022/12/29 10:26:41;;;;;;;7.45;1.27;;;;;;;8.38;100.00;100140.09;5020500;28;20028;-66
2022/12/29 10:29:20;;;;;;;7.30;1.40;;;;;;;8.34;100.00;100145.16;5026129;28;20029;-66
2022/12/29 10:32:17;;;;;;;8.38;1.50;;;;;;;8.25;100.00;100133.72;5008606;28;20109;-66
2022/12/29 10:34:49;;;;;;;4.80;1.25;;;;;;;8.25;100.00;100150.91;5007898;28;20490;-66
2022/12/29 10:37:29;;;;;;;6.65;1.50;;;;;;;8.24;100.00;100156.91;5008579;28;20017;-65
2022/12/29 10:39:55;;;;;;;5.97;1.27;;;;;;;8.21;100.00;100157.69;5019038;28;20033;-66
2022/12/29 10:42:32;;;;;;;7.95;1.65;;;;;;;8.15;100.00;100163.53;5026127;28;20025;-63
2022/12/29 10:44:59;;;;;;;9.43;2.00;;;;;;;8.17;100.00;100172.19;5027023;28;20036;-65
2022/12/29 10:47:30;;;;;;;12.75;2.05;;;;;;;8.16;100.00;100173.03;5027190;28;20087;-67
2022/12/29 10:49:58;;;;;;;5.57;1.83;;;;;;;8.20;100.00;100186.03;5027282;28;20061;-65
2022/12/29 10:52:26;;;;;;;9.15;1.70;;;;;;;8.16;100.00;100196.25;5027096;28;20060;-66
2022/12/29 10:55:16;;;;;;;8.50;2.00;;;;;;;8.13;100.00;100196.13;5027542;28;20030;-63
2022/12/29 10:57:44;;;;;;;5.05;1.55;;;;;;;8.15;100.00;100186.75;5013767;28;20026;-65
2022/12/29 11:00:21;;;;;;;4.50;1.33;;;;;;;8.19;100.00;100192.00;5008112;28;20029;-64
2022/12/29 11:03:16;;;;;;;9.48;1.75;;;;;;;8.16;100.00;100206.59;5008568;28;20030;-65
2022/12/29 11:05:52;;;;;;;9.35;2.00;;;;;;;8.20;100.00;100219.59;5008867;28;20026;-65
2022/12/29 11:08:21;;;;;;;4.75;1.15;;;;;;;8.15;100.00;100199.66;5008345;28;20044;-66
2022/12/29 11:10:58;;;;;;;9.10;2.03;;;;;;;8.17;100.00;100212.59;5021888;28;20026;-65
2022/12/29 11:13:30;;;;;;;6.78;1.60;;;;;;;8.05;100.00;100213.97;5026561;28;20033;-65
2022/12/29 11:15:55;;;;;;;11.25;2.35;;;;;;;8.08;100.00;100223.50;5013093;28;20029;-65
2022/12/29 11:18:32;;;;;;;8.98;2.08;;;;;;;8.03;100.00;100225.06;5012526;28;20021;-65
2022/12/29 11:21:04;;;;;;;7.82;1.52;;;;;;;7.98;100.00;100232.66;5013184;28;20247;-65
2022/12/29 11:23:38;;;;;;;10.20;2.22;;;;;;;7.94;100.00;100215.31;5017440;28;20048;-65
2022/12/29 11:26:09;;;;;;;9.70;1.80;;;;;;;7.97;100.00;100230.91;5017584;28;20051;-65
2022/12/29 11:28:36;;;;;;;6.22;2.00;;;;;;;7.99;100.00;100233.53;5022396;28;20040;-65
2022/12/29 11:31:04;;;;;;;8.88;2.33;;;;;;;8.02;100.00;100233.66;5016733;28;20033;-65
2022/12/29 11:33:31;;;;;;;5.78;1.55;;;;;;;8.09;100.00;100239.88;5016858;28;20115;-65
2022/12/29 11:36:05;;;;;;;6.28;1.45;;;;;;;8.13;100.00;100234.00;5018140;28;20022;-65
2022/12/29 11:38:36;;;;;;;10.52;2.63;;;;;;;8.16;100.00;100240.16;5007253;28;20041;-65
2022/12/29 11:41:02;;;;;;;8.70;1.80;;;;;;;8.21;100.00;100237.69;5027996;28;20025;-66
2022/12/29 11:43:37;;;;;;;8.20;1.90;;;;;;;8.24;100.00;100249.84;5014075;28;20041;-65
2022/12/29 11:46:03;;;;;;;8.60;1.65;;;;;;;8.24;100.00;100239.50;5011498;28;20161;-65
2022/12/29 11:48:41;;;;;;;14.05;2.28;;;;;;;8.25;100.00;100246.41;5020031;28;20033;-65
2022/12/29 11:51:07;;;;;;;7.78;1.90;;;;;;;8.28;100.00;100251.66;5009099;28;20567;-66
2022/12/29 11:53:42;;;;;;;7.40;1.50;;;;;;;8.30;100.00;100260.34;5011551;28;20028;-66
2022/12/29 11:56:12;;;;;;;7.00;2.03;;;;;;;8.33;100.00;100254.41;5029539;28;20064;-64
2022/12/29 11:58:38;;;;;;;9.75;2.47;;;;;;;8.36;100.00;100265.72;5029018;28;20074;-65
2022/12/29 12:01:12;;;;;;;15.82;3.28;;;;;;;8.41;100.00;100256.41;5016843;28;20105;-65
2022/12/29 12:03:44;;;;;;;12.18;1.88;;;;;;;8.43;100.00;100260.72;5023783;28;20031;-66
2022/12/29 12:06:14;;;;;;;7.65;1.95;;;;;;;8.44;100.00;100253.03;5011340;28;20113;-66
2022/12/29 12:08:46;;;;;;;13.02;2.28;;;;;;;8.47;100.00;100254.84;5005941;28;20040;-66
2022/12/29 12:11:17;;;;;;;8.50;2.20;;;;;;;8.49;100.00;100251.47;5005440;28;20022;-66
2022/12/29 12:14:06;;;;;;;8.17;1.57;;;;;;;8.53;100.00;100257.59;5005036;28;20026;-65
2022/12/29 12:16:56;;;;;;;9.98;2.22;;;;;;;8.60;100.00;100267.34;5005752;28;20018;-65